createdAt,value
2019-03-28T00:00:46.966Z,27.80
2019-03-28T00:03:28.817Z,26.53
2019-03-28T00:06:10.731Z,28.07
2019-03-28T00:08:52.669Z,27.67
2019-03-28T00:11:34.650Z,30.00
2019-03-28T00:14:16.526Z,28.57
2019-03-28T00:16:48.180Z,26.27
2019-03-28T00:19:36.668Z,26.50
2019-03-28T00:25:23.234Z,26.37
2019-03-28T00:28:05.263Z,25.73
2019-03-28T00:30:47.269Z,25.53
2019-03-28T00:33:29.224Z,27.23
2019-03-28T00:36:12.603Z,23.67
2019-03-28T00:38:43.621Z,28.10
2019-03-28T00:41:33.147Z,25.60
2019-03-28T00:44:16.088Z,27.87
2019-03-28T00:46:58.488Z,28.73
2019-03-28T00:49:29.436Z,26.97
2019-03-28T00:52:19.045Z,28.07
2019-03-28T00:55:01.171Z,26.27
2019-03-28T00:57:43.165Z,27.13
2019-03-28T01:00:25.319Z,26.20
2019-03-28T01:03:07.573Z,27.03
2019-03-28T01:05:50.672Z,26.70
2019-03-28T01:08:32.846Z,26.67
2019-03-28T01:11:15.058Z,30.27
2019-03-28T01:13:58.012Z,24.53
2019-03-28T01:16:40.074Z,26.13
2019-03-28T01:19:22.212Z,27.83
2019-03-28T01:22:06.173Z,30.53
2019-03-28T01:24:48.438Z,28.97
2019-03-28T01:27:30.451Z,31.93
2019-03-28T01:30:12.815Z,29.97
2019-03-28T01:32:54.819Z,29.63
2019-03-28T01:35:36.652Z,33.10
2019-03-28T01:38:18.349Z,29.07
2019-03-28T01:41:00.147Z,29.57
2019-03-28T01:43:42.082Z,29.77
2019-03-28T01:46:23.939Z,32.13
2019-03-28T01:49:06.000Z,29.77
2019-03-28T01:51:48.291Z,29.60
2019-03-28T01:54:30.456Z,29.57
2019-03-28T01:57:10.752Z,29.87
2019-03-28T01:59:54.171Z,32.33
2019-03-28T02:02:38.161Z,32.93
2019-03-28T02:05:20.698Z,32.50
2019-03-28T02:08:02.912Z,32.00
2019-03-28T02:10:45.061Z,33.70
2019-03-28T02:13:27.697Z,34.03
2019-03-28T02:16:09.668Z,31.10
2019-03-28T02:18:51.423Z,35.13
2019-03-28T02:21:22.518Z,33.33
2019-03-28T02:23:53.311Z,33.90
2019-03-28T02:26:35.627Z,36.43
2019-03-28T02:29:07.259Z,35.03
2019-03-28T02:31:55.279Z,35.80
2019-03-28T02:34:26.540Z,40.17
2019-03-28T02:37:10.078Z,38.17
2019-03-28T02:39:52.167Z,35.17
2019-03-28T02:42:34.321Z,36.43
2019-03-28T02:45:16.240Z,36.20
2019-03-28T02:47:58.401Z,33.17
2019-03-28T02:50:40.511Z,32.47
2019-03-28T02:53:22.278Z,32.30
2019-03-28T02:56:05.578Z,35.50
2019-03-28T02:58:47.539Z,34.87
2019-03-28T03:01:30.401Z,35.63
2019-03-28T03:04:12.491Z,34.43
2019-03-28T03:06:54.817Z,35.27
2019-03-28T03:09:37.039Z,30.83
2019-03-28T03:12:19.176Z,31.60
2019-03-28T03:15:01.182Z,35.00
2019-03-28T03:17:43.407Z,35.43
2019-03-28T03:20:25.914Z,35.30
2019-03-28T03:23:09.064Z,36.47
2019-03-28T03:25:50.788Z,36.87
2019-03-28T03:28:32.463Z,34.47
2019-03-28T03:31:20.486Z,35.00
2019-03-28T03:33:58.355Z,35.50
2019-03-28T03:36:31.079Z,36.27
2019-03-28T03:39:20.616Z,36.07
2019-03-28T03:42:02.919Z,38.97
2019-03-28T03:44:45.298Z,35.23
2019-03-28T03:47:27.614Z,35.17
2019-03-28T03:50:09.640Z,39.83
2019-03-28T03:52:51.696Z,34.40
2019-03-28T03:55:33.618Z,33.30
2019-03-28T03:58:18.604Z,37.97
2019-03-28T04:01:01.368Z,32.07
2019-03-28T04:03:43.078Z,36.17
2019-03-28T04:06:25.466Z,32.27
2019-03-28T04:09:07.296Z,35.97
2019-03-28T04:11:49.435Z,30.90
2019-03-28T04:14:31.682Z,31.50
2019-03-28T04:17:13.499Z,32.93
2019-03-28T04:19:55.539Z,38.03
2019-03-28T04:22:37.542Z,32.43
2019-03-28T04:25:20.403Z,34.63
2019-03-28T04:28:02.873Z,34.33
2019-03-28T04:30:45.164Z,31.70
2019-03-28T04:33:27.266Z,33.40
2019-03-28T04:36:08.795Z,35.40
2019-03-28T04:38:39.773Z,32.40
2019-03-28T04:41:21.885Z,35.37
2019-03-28T04:44:03.660Z,32.60
2019-03-28T04:46:45.670Z,34.87
2019-03-28T04:49:28.278Z,35.93
2019-03-28T04:52:09.903Z,35.67
2019-03-28T04:54:52.126Z,34.27
2019-03-28T04:57:34.639Z,32.53
2019-03-28T05:00:16.601Z,34.67
2019-03-28T05:02:58.815Z,39.43
2019-03-28T05:05:40.837Z,33.27
2019-03-28T05:08:22.835Z,37.13
2019-03-28T05:11:04.780Z,40.60
2019-03-28T05:13:47.132Z,33.83
2019-03-28T05:16:29.266Z,35.20
2019-03-28T05:19:11.530Z,37.83
2019-03-28T05:21:53.848Z,43.13
2019-03-28T05:24:35.990Z,39.50
2019-03-28T05:27:18.290Z,34.77
2019-03-28T05:30:00.515Z,40.90
2019-03-28T05:32:42.645Z,41.83
2019-03-28T05:38:46.646Z,38.67
2019-03-28T05:41:28.427Z,37.60
2019-03-28T05:43:59.246Z,35.67
2019-03-28T05:46:48.774Z,40.40
2019-03-28T05:49:19.558Z,37.17
2019-03-28T05:52:11.635Z,42.70
2019-03-28T05:54:47.507Z,38.03
2019-03-28T05:57:30.846Z,37.83
2019-03-28T06:00:12.730Z,39.63
2019-03-28T06:02:43.536Z,37.70
2019-03-28T06:05:27.535Z,38.20
2019-03-28T06:08:09.478Z,36.67
2019-03-28T06:10:40.394Z,36.87
2019-03-28T06:13:29.926Z,32.87
2019-03-28T06:16:11.822Z,37.67
2019-03-28T06:18:53.997Z,38.73
2019-03-28T06:21:35.984Z,38.23
2019-03-28T06:24:28.544Z,33.87
2019-03-28T06:27:10.899Z,36.13
2019-03-28T06:29:53.062Z,36.60
2019-03-28T06:32:42.726Z,38.27
2019-03-28T06:35:21.826Z,34.70
2019-03-28T06:38:02.826Z,38.63
2019-03-28T06:40:46.050Z,37.03
2019-03-28T06:43:28.314Z,38.73
2019-03-28T06:46:10.288Z,36.30
2019-03-28T06:48:41.147Z,38.17
2019-03-28T06:51:23.453Z,41.20
2019-03-28T06:54:05.546Z,38.37
2019-03-28T06:56:47.471Z,37.23
2019-03-28T06:59:37.177Z,36.37
2019-03-28T07:02:13.546Z,42.23
2019-03-28T07:04:56.407Z,38.60
2019-03-28T07:07:41.808Z,39.70
2019-03-28T07:10:23.733Z,36.47
2019-03-28T07:13:06.066Z,34.17
2019-03-28T07:15:48.324Z,37.00
2019-03-28T07:18:30.310Z,40.60
2019-03-28T07:21:12.454Z,39.90
2019-03-28T07:23:54.535Z,44.10
2019-03-28T07:26:36.622Z,39.60
2019-03-28T07:29:18.684Z,37.03
2019-03-28T07:32:00.775Z,39.13
2019-03-28T07:34:44.046Z,36.67
2019-03-28T07:37:28.090Z,36.27
2019-03-28T07:40:09.959Z,38.40
2019-03-28T07:42:51.986Z,34.17
2019-03-28T07:45:34.651Z,39.03
2019-03-28T07:48:16.969Z,35.53
2019-03-28T07:50:59.028Z,38.20
2019-03-28T07:53:40.835Z,37.20
2019-03-28T07:56:23.281Z,37.57
2019-03-28T07:59:05.828Z,38.17
2019-03-28T08:01:47.883Z,36.60
2019-03-28T08:04:31.866Z,39.40
2019-03-28T08:07:13.968Z,37.20
2019-03-28T08:09:57.107Z,39.67
2019-03-28T08:12:38.935Z,37.93
2019-03-28T08:15:21.128Z,40.27
2019-03-28T08:18:03.277Z,38.40
2019-03-28T08:20:45.291Z,39.53
2019-03-28T08:23:27.183Z,37.50
2019-03-28T08:26:13.097Z,37.57
2019-03-28T08:28:55.630Z,40.57
2019-03-28T08:31:40.826Z,37.90
2019-03-28T08:34:25.101Z,41.43
2019-03-28T08:37:07.261Z,42.93
2019-03-28T08:39:50.203Z,40.90
2019-03-28T08:42:33.386Z,44.83
2019-03-28T08:45:15.966Z,43.53
2019-03-28T08:47:58.502Z,39.23
2019-03-28T08:50:41.892Z,39.77
2019-03-28T08:53:23.629Z,40.47
2019-03-28T08:56:07.916Z,37.70
2019-03-28T08:58:49.838Z,38.97
2019-03-28T09:04:15.895Z,38.53
2019-03-28T09:06:57.977Z,40.30
2019-03-28T09:09:40.786Z,39.50
2019-03-28T09:12:23.126Z,38.50
2019-03-28T09:15:04.911Z,43.93
2019-03-28T09:17:47.269Z,41.40
2019-03-28T09:20:29.899Z,47.10
2019-03-28T09:23:11.715Z,41.10
2019-03-28T09:26:04.537Z,41.83
2019-03-28T09:28:58.210Z,44.60
2019-03-28T09:34:27.478Z,48.27
2019-03-28T09:37:09.299Z,40.23
2019-03-28T09:39:51.252Z,37.90
2019-03-28T09:42:33.258Z,41.27
2019-03-28T09:48:27.192Z,45.77
2019-03-28T09:51:09.851Z,38.13
2019-03-28T09:53:52.446Z,42.50
2019-03-28T09:56:37.554Z,52.70
2019-03-28T09:59:19.798Z,45.37
2019-03-28T10:02:01.969Z,45.37
2019-03-28T10:04:44.998Z,44.17
2019-03-28T10:07:27.283Z,47.10
2019-03-28T10:10:09.418Z,45.37
2019-03-28T10:12:51.442Z,47.73
2019-03-28T10:15:36.668Z,49.47
2019-03-28T10:18:17.709Z,44.20
2019-03-28T10:21:01.316Z,48.77
2019-03-28T10:23:44.353Z,46.90
2019-03-28T10:26:26.999Z,45.17
2019-03-28T10:29:11.380Z,47.77
2019-03-28T10:31:53.320Z,45.27
2019-03-28T10:34:35.355Z,47.53
2019-03-28T10:37:18.071Z,46.17
2019-03-28T10:40:01.757Z,44.80
2019-03-28T10:42:45.035Z,48.23
2019-03-28T10:45:28.677Z,46.77
2019-03-28T10:48:10.177Z,41.67
2019-03-28T10:50:52.528Z,45.30
2019-03-28T10:53:34.749Z,44.80
2019-03-28T10:56:21.882Z,45.37
2019-03-28T10:59:01.258Z,40.27
2019-03-28T11:01:49.994Z,43.83
2019-03-28T11:04:26.945Z,41.87
2019-03-28T11:07:10.030Z,37.03
2019-03-28T11:09:52.084Z,34.47
2019-03-28T11:12:33.985Z,32.83
2019-03-28T11:15:15.899Z,30.03
2019-03-28T11:17:59.219Z,33.07
2019-03-28T11:20:41.475Z,31.73
2019-03-28T11:23:24.819Z,37.90
2019-03-28T11:26:06.788Z,34.63
2019-03-28T11:28:49.021Z,33.47
2019-03-28T11:31:31.082Z,28.97
2019-03-28T11:34:13.457Z,30.67
2019-03-28T11:36:56.709Z,26.97
2019-03-28T11:39:38.704Z,29.30
2019-03-28T11:42:21.256Z,28.30
2019-03-28T11:45:04.568Z,29.93
2019-03-28T11:47:48.774Z,25.70
2019-03-28T11:50:30.663Z,32.60
2019-03-28T11:53:13.571Z,30.43
2019-03-28T11:55:56.143Z,21.47
2019-03-28T11:58:38.715Z,19.47
2019-03-28T12:01:21.110Z,22.27
2019-03-28T12:04:03.488Z,25.73
2019-03-28T12:09:34.630Z,23.30
2019-03-28T12:12:16.677Z,19.70
2019-03-28T12:14:58.694Z,19.33
2019-03-28T12:17:42.025Z,21.17
2019-03-28T12:20:26.742Z,17.50
2019-03-28T12:23:09.116Z,17.77
2019-03-28T12:25:51.321Z,16.33
2019-03-28T12:28:33.647Z,13.93
2019-03-28T12:31:15.638Z,15.20
2019-03-28T12:33:57.921Z,19.40
2019-03-28T12:36:39.717Z,18.33
2019-03-28T12:39:23.622Z,20.40
2019-03-28T12:42:05.912Z,18.63
2019-03-28T12:44:57.039Z,18.40
2019-03-28T12:47:42.180Z,19.10
2019-03-28T12:50:17.102Z,20.63
2019-03-28T12:53:00.313Z,23.57
2019-03-28T12:55:42.581Z,21.43
2019-03-28T12:58:24.249Z,25.20
2019-03-28T13:01:06.202Z,21.93
2019-03-28T13:03:50.865Z,22.90
2019-03-28T13:06:37.200Z,21.03
2019-03-28T13:09:19.373Z,24.63
2019-03-28T13:12:01.668Z,26.60
2019-03-28T13:14:44.013Z,27.10
2019-03-28T13:20:22.243Z,29.67
2019-03-28T13:23:05.624Z,28.20
2019-03-28T13:25:47.622Z,28.20
2019-03-28T13:28:30.031Z,27.40
2019-03-28T13:31:12.621Z,28.33
2019-03-28T13:33:55.649Z,36.33
2019-03-28T13:36:38.011Z,27.13
2019-03-28T13:39:23.115Z,28.07
2019-03-28T13:42:05.341Z,30.93
2019-03-28T13:44:48.632Z,26.70
2019-03-28T13:47:30.748Z,28.53
2019-03-28T13:50:13.008Z,27.67
2019-03-28T13:52:55.874Z,28.67
2019-03-28T13:55:37.681Z,29.57
2019-03-28T13:58:20.145Z,30.47
2019-03-28T14:01:02.836Z,26.67
2019-03-28T14:03:45.337Z,29.77
2019-03-28T14:06:30.631Z,29.07
2019-03-28T14:09:16.411Z,30.43
2019-03-28T14:11:58.487Z,28.90
2019-03-28T14:14:29.413Z,29.77
2019-03-28T14:17:19.617Z,30.30
2019-03-28T14:19:57.391Z,30.67
2019-03-28T14:22:47.108Z,30.07
2019-03-28T14:25:29.194Z,31.60
2019-03-28T14:28:01.598Z,28.30
2019-03-28T14:33:44.974Z,34.90
2019-03-28T14:36:26.970Z,31.63
2019-03-28T14:39:09.070Z,34.20
2019-03-28T14:41:51.229Z,31.47
2019-03-28T14:44:33.408Z,27.67
2019-03-28T14:47:15.488Z,30.83
2019-03-28T14:49:58.767Z,31.13
2019-03-28T14:52:40.906Z,29.87
2019-03-28T14:55:23.026Z,30.80
2019-03-28T14:58:05.408Z,33.83
2019-03-28T15:00:48.112Z,32.27
2019-03-28T15:03:30.617Z,34.67
2019-03-28T15:06:12.816Z,37.67
2019-03-28T15:08:54.913Z,32.03
2019-03-28T15:11:38.669Z,32.90
2019-03-28T15:14:20.884Z,35.63
2019-03-28T15:17:03.812Z,32.93
2019-03-28T15:19:34.873Z,32.00
2019-03-28T15:22:17.284Z,36.37
2019-03-28T15:24:59.415Z,28.33
2019-03-28T15:27:42.586Z,28.33
2019-03-28T15:30:27.510Z,31.43
2019-03-28T15:33:09.646Z,31.27
2019-03-28T15:35:51.258Z,28.80
2019-03-28T15:38:35.219Z,30.87
2019-03-28T15:41:20.751Z,32.70
2019-03-28T15:44:02.759Z,30.63
2019-03-28T15:46:44.902Z,31.13
2019-03-28T15:52:23.298Z,30.63
2019-03-28T15:55:05.440Z,31.63
2019-03-28T15:57:47.704Z,34.43
2019-03-28T16:00:31.213Z,32.13
2019-03-28T16:03:13.543Z,29.70
2019-03-28T16:05:58.527Z,34.47
2019-03-28T16:08:41.202Z,30.77
2019-03-28T16:11:26.837Z,33.23
2019-03-28T16:14:09.751Z,29.53
2019-03-28T16:16:51.495Z,30.80
2019-03-28T16:19:33.486Z,32.47
2019-03-28T16:22:15.713Z,33.37
2019-03-28T16:24:57.655Z,31.07
2019-03-28T16:27:41.499Z,30.47
2019-03-28T16:30:24.330Z,29.77
2019-03-28T16:33:07.170Z,27.40
2019-03-28T16:35:48.702Z,28.57
2019-03-28T16:38:32.873Z,28.83
2019-03-28T16:41:20.359Z,31.17
2019-03-28T16:44:02.551Z,30.40
2019-03-28T16:46:44.334Z,29.13
2019-03-28T16:49:26.671Z,27.20
2019-03-28T16:52:08.519Z,34.63
2019-03-28T16:54:50.394Z,30.80
2019-03-28T16:57:32.590Z,33.90
2019-03-28T17:00:14.689Z,31.13
2019-03-28T17:02:56.726Z,28.37
2019-03-28T17:05:38.879Z,28.47
2019-03-28T17:08:09.997Z,33.23
2019-03-28T17:10:52.128Z,29.90
2019-03-28T17:13:34.442Z,28.13
2019-03-28T17:16:16.869Z,27.23
2019-03-28T17:18:48.169Z,24.33
2019-03-28T17:21:30.877Z,23.40
2019-03-28T17:24:13.352Z,23.23
2019-03-28T17:26:55.577Z,24.13
2019-03-28T17:29:37.740Z,27.10
2019-03-28T17:32:19.842Z,20.73
2019-03-28T17:35:01.543Z,26.47
2019-03-28T17:37:45.603Z,23.47
2019-03-28T17:40:27.306Z,24.73
2019-03-28T17:43:09.551Z,25.87
2019-03-28T17:45:52.160Z,27.10
2019-03-28T17:48:34.648Z,26.67
2019-03-28T17:51:16.406Z,25.53
2019-03-28T17:53:58.462Z,25.33
2019-03-28T17:56:40.849Z,24.33
2019-03-28T17:59:24.118Z,27.10
2019-03-28T18:05:09.740Z,23.50
2019-03-28T18:07:51.631Z,26.43
2019-03-28T18:10:33.911Z,26.07
2019-03-28T18:13:16.123Z,28.40
2019-03-28T18:15:58.443Z,25.37
2019-03-28T18:18:42.135Z,29.93
2019-03-28T18:21:24.004Z,24.43
2019-03-28T18:24:06.008Z,23.60
2019-03-28T18:26:47.849Z,23.60
2019-03-28T18:29:30.181Z,25.57
2019-03-28T18:32:12.332Z,24.33
2019-03-28T18:35:05.108Z,27.03
2019-03-28T18:37:38.344Z,25.83
2019-03-28T18:40:21.878Z,23.50
2019-03-28T18:43:03.942Z,27.27
2019-03-28T18:45:45.678Z,27.67
2019-03-28T18:51:29.162Z,26.67
2019-03-28T18:57:13.695Z,30.57
2019-03-28T18:59:56.421Z,28.47
2019-03-28T19:02:27.303Z,28.93
2019-03-28T19:05:19.524Z,25.43
2019-03-28T19:07:54.561Z,23.60
2019-03-28T19:10:38.635Z,27.03
2019-03-28T19:13:20.645Z,30.87
2019-03-28T19:16:02.938Z,26.47
2019-03-28T19:18:45.040Z,31.37
2019-03-28T19:21:27.791Z,29.73
2019-03-28T19:23:59.156Z,26.80
2019-03-28T19:26:40.696Z,29.33
2019-03-28T19:29:22.542Z,30.03
2019-03-28T19:32:04.566Z,26.90
2019-03-28T19:34:46.657Z,30.50
2019-03-28T19:37:30.391Z,29.37
2019-03-28T19:40:14.290Z,28.17
2019-03-28T19:42:57.095Z,27.83
2019-03-28T19:45:39.025Z,30.27
2019-03-28T19:48:21.358Z,27.73
2019-03-28T19:51:03.320Z,28.57
2019-03-28T19:53:45.379Z,29.43
2019-03-28T19:56:16.345Z,28.93
2019-03-28T19:58:59.125Z,31.90
2019-03-28T20:01:41.517Z,28.33
2019-03-28T20:04:12.384Z,31.30
2019-03-28T20:06:54.706Z,33.13
2019-03-28T20:09:37.660Z,33.33
2019-03-28T20:12:08.511Z,31.43
2019-03-28T20:14:50.677Z,31.10
2019-03-28T20:17:32.543Z,31.00
2019-03-28T20:20:14.401Z,33.90
2019-03-28T20:22:56.792Z,31.70
2019-03-28T20:28:17.887Z,35.03
2019-03-28T20:30:59.678Z,39.07
2019-03-28T20:33:41.424Z,30.20
2019-03-28T20:36:37.073Z,36.37
2019-03-28T20:39:08.482Z,34.10
2019-03-28T20:41:50.038Z,32.93
2019-03-28T20:44:33.087Z,33.93
2019-03-28T20:47:15.317Z,33.93
2019-03-28T20:49:57.543Z,33.17
2019-03-28T20:52:39.238Z,32.53
2019-03-28T20:55:10.318Z,34.53
2019-03-28T20:57:52.181Z,34.67
2019-03-28T21:00:35.354Z,35.50
2019-03-28T21:03:17.454Z,34.73
2019-03-28T21:05:59.448Z,37.67
2019-03-28T21:08:41.695Z,38.77
2019-03-28T21:11:12.724Z,36.83
2019-03-28T21:13:54.125Z,37.13
2019-03-28T21:16:36.271Z,31.03
2019-03-28T21:19:07.127Z,33.40
2019-03-28T21:21:58.326Z,32.90
2019-03-28T21:24:40.576Z,34.23
2019-03-28T21:27:22.832Z,32.90
2019-03-28T21:30:04.736Z,35.77
2019-03-28T21:32:55.361Z,32.07
2019-03-28T21:35:32.092Z,35.17
2019-03-28T21:38:17.307Z,32.80
2019-03-28T21:40:59.839Z,32.40
2019-03-28T21:43:42.171Z,33.83
2019-03-28T21:46:24.076Z,34.13
2019-03-28T21:48:54.931Z,34.03
2019-03-28T21:51:25.716Z,36.27
2019-03-28T21:54:07.612Z,35.47
2019-03-28T21:56:50.060Z,31.37
2019-03-28T21:59:32.736Z,30.77
2019-03-28T22:02:15.205Z,33.97
2019-03-28T22:04:57.647Z,35.90
2019-03-28T22:07:41.125Z,36.00
2019-03-28T22:10:22.685Z,35.07
2019-03-28T22:13:04.396Z,33.43
2019-03-28T22:15:46.241Z,35.67
2019-03-28T22:18:18.083Z,34.73
2019-03-28T22:21:00.337Z,35.17
2019-03-28T22:23:42.214Z,35.63
2019-03-28T22:26:24.649Z,34.67
2019-03-28T22:29:06.854Z,34.70
2019-03-28T22:31:49.174Z,32.03
2019-03-28T22:34:31.326Z,34.57
2019-03-28T22:37:13.614Z,30.83
2019-03-28T22:39:57.558Z,33.37
2019-03-28T22:42:28.358Z,31.63
2019-03-28T22:45:19.588Z,32.13
2019-03-28T22:48:10.785Z,32.77
2019-03-28T22:50:45.631Z,31.43
2019-03-28T22:53:27.954Z,31.90
2019-03-28T22:55:58.828Z,33.80
2019-03-28T22:58:40.362Z,35.33
2019-03-28T23:01:22.410Z,35.60
2019-03-28T23:04:05.585Z,30.07
2019-03-28T23:06:49.168Z,34.33
2019-03-28T23:09:31.606Z,36.60
2019-03-28T23:12:13.434Z,34.97
2019-03-28T23:14:55.741Z,34.50
2019-03-28T23:17:26.649Z,36.40
2019-03-28T23:20:16.183Z,33.03
2019-03-28T23:22:58.141Z,36.90
2019-03-28T23:25:28.926Z,33.10
2019-03-28T23:28:18.974Z,35.70
2019-03-28T23:31:21.155Z,38.73
2019-03-28T23:34:03.067Z,33.73
2019-03-28T23:36:45.074Z,31.33
2019-03-28T23:39:15.963Z,38.07
2019-03-28T23:42:05.617Z,34.43
2019-03-28T23:44:47.734Z,34.03
2019-03-28T23:47:30.361Z,35.03
2019-03-28T23:50:12.656Z,40.30
2019-03-28T23:52:54.968Z,36.40
2019-03-28T23:55:36.441Z,36.07
2019-03-28T23:58:18.785Z,41.17
